Säätilassa ei varoituksia.

Lähimmät METAR asemat

 

EFPO - Pori (mil/Civ), Finland
Distance from station: PLU 42km
Päivitetty: 06/12/2020 00:50
Vaihtelevaa
Vaihtelevaa
 Wind from EKA
Tuuli: EKA 22 km/h
Lämpötila: 5°C
Wind Chill: 1°C
Kastepiste: 5°C
Kosteus: 100%
Ilmanpaine: 1014 hPa
Clouds: Vaihtelevaa
Visibility: 5 km
Cloud details: Vaihtelevaa 61 m
2020/12/05 22:50 EFPO 052250Z AUTO 16012KT 5000 OVC002 05/05 Q1014
EFTU - Turku/Abo, Finland
Distance from station: E 68km
Päivitetty: 06/12/2020 00:50
Light drizzle, Vaihtelevaa
Light drizzle, Vaihtelevaa
 Wind from E
Tuuli: E 17 km/h
Lämpötila: 5°C
Wind Chill: 2°C
Kastepiste: 5°C
Kosteus: 100%
Ilmanpaine: 1016 hPa
Yhteenveto: Light Drizzle
Clouds: Vaihtelevaa
Visibility: 6 km
Cloud details: Vaihtelevaa 183 m
2020/12/05 22:50 EFTU 052250Z AUTO 17009KT 130V200 6000 -DZ OVC006 05/05 Q1016
 
EFTP - Tampere/Pirkkala, Finland
Distance from station: IKO 84km
Päivitetty: 06/12/2020 00:50
Mist, Vaihtelevaa
Mist, Vaihtelevaa
 Wind from EKA
Tuuli: EKA 13 km/h
Lämpötila: 3°C
Wind Chill: -1°C
Kastepiste: 3°C
Kosteus: 100%
Ilmanpaine: 1016 hPa
Yhteenveto: Mist
Clouds: Vaihtelevaa
Visibility: 5 km
Cloud details: Vaihtelevaa 61 m
2020/12/05 22:50 EFTP 052250Z AUTO 15007KT 120V180 4700 BR OVC002 03/03 Q1016